sensor_id;sensor_type;location;lat;lon;timestamp;temperature;humidity
80279;DHT22;70683;52.492;13.416;2023-09-08T00:02:01;21.20;63.30
80279;DHT22;70683;52.492;13.416;2023-09-08T00:04:27;21.20;63.30
80279;DHT22;70683;52.492;13.416;2023-09-08T00:06:54;21.10;62.90
80279;DHT22;70683;52.492;13.416;2023-09-08T00:09:20;21.10;63.90
80279;DHT22;70683;52.492;13.416;2023-09-08T00:11:47;21.10;64.00
80279;DHT22;70683;52.492;13.416;2023-09-08T00:14:14;21.10;63.80
80279;DHT22;70683;52.492;13.416;2023-09-08T00:16:40;21.10;64.90
80279;DHT22;70683;52.492;13.416;2023-09-08T00:19:10;21.00;64.10
80279;DHT22;70683;52.492;13.416;2023-09-08T00:21:37;21.00;64.10
80279;DHT22;70683;52.492;13.416;2023-09-08T00:24:05;21.00;64.20
80279;DHT22;70683;52.492;13.416;2023-09-08T00:26:32;21.10;63.80
80279;DHT22;70683;52.492;13.416;2023-09-08T00:28:58;21.10;63.90
80279;DHT22;70683;52.492;13.416;2023-09-08T00:31:25;21.10;63.90
80279;DHT22;70683;52.492;13.416;2023-09-08T00:33:52;21.10;64.00
80279;DHT22;70683;52.492;13.416;2023-09-08T00:36:18;21.00;64.20
80279;DHT22;70683;52.492;13.416;2023-09-08T00:38:45;20.90;64.60
80279;DHT22;70683;52.492;13.416;2023-09-08T00:41:12;20.70;65.20
80279;DHT22;70683;52.492;13.416;2023-09-08T00:43:38;20.70;65.40
80279;DHT22;70683;52.492;13.416;2023-09-08T00:46:06;20.70;65.40
80279;DHT22;70683;52.492;13.416;2023-09-08T00:48:33;20.70;65.40
80279;DHT22;70683;52.492;13.416;2023-09-08T00:51:01;20.70;65.30
80279;DHT22;70683;52.492;13.416;2023-09-08T00:53:28;20.70;65.60
80279;DHT22;70683;52.492;13.416;2023-09-08T00:55:56;20.70;65.20
80279;DHT22;70683;52.492;13.416;2023-09-08T00:58:23;20.70;65.30
80279;DHT22;70683;52.492;13.416;2023-09-08T01:00:49;20.70;65.00
80279;DHT22;70683;52.492;13.416;2023-09-08T01:03:16;20.70;65.70
80279;DHT22;70683;52.492;13.416;2023-09-08T01:05:43;20.60;65.60
80279;DHT22;70683;52.492;13.416;2023-09-08T01:08:13;20.60;65.60
80279;DHT22;70683;52.492;13.416;2023-09-08T01:10:41;20.60;65.90
80279;DHT22;70683;52.492;13.416;2023-09-08T01:13:08;20.60;66.00
80279;DHT22;70683;52.492;13.416;2023-09-08T01:15:36;20.50;66.00
80279;DHT22;70683;52.492;13.416;2023-09-08T01:18:02;20.60;65.80
80279;DHT22;70683;52.492;13.416;2023-09-08T01:20:41;20.50;66.00
80279;DHT22;70683;52.492;13.416;2023-09-08T01:23:11;20.50;66.00
80279;DHT22;70683;52.492;13.416;2023-09-08T01:26:04;20.50;65.70
80279;DHT22;70683;52.492;13.416;2023-09-08T01:28:34;20.60;65.70
80279;DHT22;70683;52.492;13.416;2023-09-08T01:31:02;20.40;66.40
80279;DHT22;70683;52.492;13.416;2023-09-08T01:33:29;20.40;67.50
80279;DHT22;70683;52.492;13.416;2023-09-08T01:35:56;20.40;66.50
80279;DHT22;70683;52.492;13.416;2023-09-08T01:38:24;20.30;66.60
80279;DHT22;70683;52.492;13.416;2023-09-08T01:40:51;20.40;66.60
80279;DHT22;70683;52.492;13.416;2023-09-08T01:43:18;20.30;66.60
80279;DHT22;70683;52.492;13.416;2023-09-08T01:45:45;20.40;66.50
80279;DHT22;70683;52.492;13.416;2023-09-08T01:48:11;20.40;66.50
80279;DHT22;70683;52.492;13.416;2023-09-08T01:50:38;20.40;66.30
80279;DHT22;70683;52.492;13.416;2023-09-08T01:53:04;20.40;66.30
80279;DHT22;70683;52.492;13.416;2023-09-08T01:55:31;20.30;66.70
80279;DHT22;70683;52.492;13.416;2023-09-08T01:57:57;20.20;67.00
80279;DHT22;70683;52.492;13.416;2023-09-08T02:00:24;20.10;67.20
80279;DHT22;70683;52.492;13.416;2023-09-08T02:02:51;20.10;67.00
80279;DHT22;70683;52.492;13.416;2023-09-08T02:05:17;20.10;67.00
80279;DHT22;70683;52.492;13.416;2023-09-08T02:07:44;20.10;67.20
80279;DHT22;70683;52.492;13.416;2023-09-08T02:10:11;20.10;67.40
80279;DHT22;70683;52.492;13.416;2023-09-08T02:12:37;20.00;67.40
80279;DHT22;70683;52.492;13.416;2023-09-08T02:15:04;20.00;67.80
80279;DHT22;70683;52.492;13.416;2023-09-08T02:17:31;19.90;67.90
80279;DHT22;70683;52.492;13.416;2023-09-08T02:19:58;19.90;68.00
80279;DHT22;70683;52.492;13.416;2023-09-08T02:22:24;19.90;68.10
80279;DHT22;70683;52.492;13.416;2023-09-08T02:24:51;19.80;68.10
80279;DHT22;70683;52.492;13.416;2023-09-08T02:27:19;19.90;68.10
80279;DHT22;70683;52.492;13.416;2023-09-08T02:29:46;19.70;68.50
80279;DHT22;70683;52.492;13.416;2023-09-08T02:32:13;19.80;68.40
80279;DHT22;70683;52.492;13.416;2023-09-08T02:34:40;19.80;68.40
80279;DHT22;70683;52.492;13.416;2023-09-08T02:37:08;19.70;68.50
80279;DHT22;70683;52.492;13.416;2023-09-08T02:39:35;19.70;68.70
80279;DHT22;70683;52.492;13.416;2023-09-08T02:42:01;19.70;68.80
80279;DHT22;70683;52.492;13.416;2023-09-08T02:44:28;19.60;69.10
80279;DHT22;70683;52.492;13.416;2023-09-08T02:46:55;19.60;69.30
80279;DHT22;70683;52.492;13.416;2023-09-08T02:49:22;19.50;69.50
80279;DHT22;70683;52.492;13.416;2023-09-08T02:51:48;19.60;69.50
80279;DHT22;70683;52.492;13.416;2023-09-08T02:54:15;19.60;69.30
80279;DHT22;70683;52.492;13.416;2023-09-08T02:56:41;19.60;69.60
80279;DHT22;70683;52.492;13.416;2023-09-08T02:59:08;19.50;69.60
80279;DHT22;70683;52.492;13.416;2023-09-08T03:01:35;19.50;69.90
80279;DHT22;70683;52.492;13.416;2023-09-08T03:04:01;19.50;70.10
80279;DHT22;70683;52.492;13.416;2023-09-08T03:06:28;19.40;70.20
80279;DHT22;70683;52.492;13.416;2023-09-08T03:08:54;19.40;70.40
80279;DHT22;70683;52.492;13.416;2023-09-08T03:11:21;19.40;70.10
80279;DHT22;70683;52.492;13.416;2023-09-08T03:13:47;19.40;70.20
80279;DHT22;70683;52.492;13.416;2023-09-08T03:16:14;19.40;70.30
80279;DHT22;70683;52.492;13.416;2023-09-08T03:18:41;19.30;70.20
80279;DHT22;70683;52.492;13.416;2023-09-08T03:21:08;19.40;70.00
80279;DHT22;70683;52.492;13.416;2023-09-08T03:23:37;19.40;70.10
80279;DHT22;70683;52.492;13.416;2023-09-08T03:26:04;19.40;70.00
80279;DHT22;70683;52.492;13.416;2023-09-08T03:28:32;19.40;69.80
80279;DHT22;70683;52.492;13.416;2023-09-08T03:31:00;19.30;70.30
80279;DHT22;70683;52.492;13.416;2023-09-08T03:33:28;19.20;70.90
80279;DHT22;70683;52.492;13.416;2023-09-08T03:35:54;19.20;71.00
80279;DHT22;70683;52.492;13.416;2023-09-08T03:38:22;19.20;70.60
80279;DHT22;70683;52.492;13.416;2023-09-08T03:40:49;19.20;70.70
80279;DHT22;70683;52.492;13.416;2023-09-08T03:43:15;19.10;71.10
80279;DHT22;70683;52.492;13.416;2023-09-08T03:45:42;19.10;71.30
80279;DHT22;70683;52.492;13.416;2023-09-08T03:48:09;19.00;71.10
80279;DHT22;70683;52.492;13.416;2023-09-08T03:50:36;19.00;71.50
80279;DHT22;70683;52.492;13.416;2023-09-08T03:53:02;19.00;71.70
80279;DHT22;70683;52.492;13.416;2023-09-08T03:55:29;19.00;71.80
80279;DHT22;70683;52.492;13.416;2023-09-08T03:57:56;19.00;71.80
80279;DHT22;70683;52.492;13.416;2023-09-08T04:00:23;18.90;71.90
80279;DHT22;70683;52.492;13.416;2023-09-08T04:02:49;18.80;72.40
80279;DHT22;70683;52.492;13.416;2023-09-08T04:05:17;18.90;72.30
80279;DHT22;70683;52.492;13.416;2023-09-08T04:07:45;18.80;72.50
80279;DHT22;70683;52.492;13.416;2023-09-08T04:10:12;18.80;72.60
80279;DHT22;70683;52.492;13.416;2023-09-08T04:12:39;18.80;72.70
80279;DHT22;70683;52.492;13.416;2023-09-08T04:15:07;18.70;72.90
80279;DHT22;70683;52.492;13.416;2023-09-08T04:17:34;18.80;72.40
80279;DHT22;70683;52.492;13.416;2023-09-08T04:20:04;18.80;72.60
80279;DHT22;70683;52.492;13.416;2023-09-08T04:22:32;18.80;72.70
80279;DHT22;70683;52.492;13.416;2023-09-08T04:24:59;18.70;73.60
80279;DHT22;70683;52.492;13.416;2023-09-08T04:27:26;18.70;73.10
80279;DHT22;70683;52.492;13.416;2023-09-08T04:29:53;18.70;73.10
80279;DHT22;70683;52.492;13.416;2023-09-08T04:32:19;18.70;73.10
80279;DHT22;70683;52.492;13.416;2023-09-08T04:34:46;18.70;73.00
80279;DHT22;70683;52.492;13.416;2023-09-08T04:37:13;18.70;73.10
80279;DHT22;70683;52.492;13.416;2023-09-08T04:39:40;18.70;73.20
80279;DHT22;70683;52.492;13.416;2023-09-08T04:42:06;18.70;73.40
80279;DHT22;70683;52.492;13.416;2023-09-08T04:44:33;18.70;73.50
80279;DHT22;70683;52.492;13.416;2023-09-08T04:47:00;18.70;73.70
80279;DHT22;70683;52.492;13.416;2023-09-08T04:49:26;18.70;73.70
80279;DHT22;70683;52.492;13.416;2023-09-08T04:51:54;18.70;73.70
80279;DHT22;70683;52.492;13.416;2023-09-08T04:54:21;18.80;73.20
80279;DHT22;70683;52.492;13.416;2023-09-08T04:56:50;18.70;73.40
80279;DHT22;70683;52.492;13.416;2023-09-08T04:59:16;18.70;73.40
80279;DHT22;70683;52.492;13.416;2023-09-08T05:01:43;18.70;74.00
80279;DHT22;70683;52.492;13.416;2023-09-08T05:04:10;18.70;73.20
80279;DHT22;70683;52.492;13.416;2023-09-08T05:06:36;18.70;73.30
80279;DHT22;70683;52.492;13.416;2023-09-08T05:09:03;18.70;73.20
80279;DHT22;70683;52.492;13.416;2023-09-08T05:11:30;18.70;73.50
80279;DHT22;70683;52.492;13.416;2023-09-08T05:13:57;18.70;73.80
80279;DHT22;70683;52.492;13.416;2023-09-08T05:16:24;18.70;73.80
80279;DHT22;70683;52.492;13.416;2023-09-08T05:18:54;18.80;73.60
80279;DHT22;70683;52.492;13.416;2023-09-08T05:21:21;18.70;73.30
80279;DHT22;70683;52.492;13.416;2023-09-08T05:23:47;18.80;73.30
80279;DHT22;70683;52.492;13.416;2023-09-08T05:26:14;18.80;73.20
80279;DHT22;70683;52.492;13.416;2023-09-08T05:28:41;18.90;72.50
80279;DHT22;70683;52.492;13.416;2023-09-08T05:31:08;18.90;72.50
80279;DHT22;70683;52.492;13.416;2023-09-08T05:33:35;19.00;72.30
80279;DHT22;70683;52.492;13.416;2023-09-08T05:36:01;19.00;71.90
80279;DHT22;70683;52.492;13.416;2023-09-08T05:38:28;19.00;71.80
80279;DHT22;70683;52.492;13.416;2023-09-08T05:40:54;19.10;71.50
80279;DHT22;70683;52.492;13.416;2023-09-08T05:43:22;19.00;71.90
80279;DHT22;70683;52.492;13.416;2023-09-08T05:45:49;18.90;72.30
80279;DHT22;70683;52.492;13.416;2023-09-08T05:48:15;18.90;71.90
80279;DHT22;70683;52.492;13.416;2023-09-08T05:50:42;18.90;72.30
80279;DHT22;70683;52.492;13.416;2023-09-08T05:53:09;18.90;72.60
80279;DHT22;70683;52.492;13.416;2023-09-08T05:55:36;18.90;72.40
80279;DHT22;70683;52.492;13.416;2023-09-08T05:58:02;19.00;72.00
80279;DHT22;70683;52.492;13.416;2023-09-08T06:00:29;19.10;71.80
80279;DHT22;70683;52.492;13.416;2023-09-08T06:02:56;19.10;71.80
80279;DHT22;70683;52.492;13.416;2023-09-08T06:05:23;19.10;71.80
80279;DHT22;70683;52.492;13.416;2023-09-08T06:07:50;19.10;72.00
80279;DHT22;70683;52.492;13.416;2023-09-08T06:10:16;19.10;71.90
80279;DHT22;70683;52.492;13.416;2023-09-08T06:12:43;19.20;71.60
80279;DHT22;70683;52.492;13.416;2023-09-08T06:15:10;19.20;71.30
80279;DHT22;70683;52.492;13.416;2023-09-08T06:17:37;19.30;71.40
80279;DHT22;70683;52.492;13.416;2023-09-08T06:20:04;19.30;71.40
80279;DHT22;70683;52.492;13.416;2023-09-08T06:22:31;19.40;71.20
80279;DHT22;70683;52.492;13.416;2023-09-08T06:24:57;19.60;70.50
80279;DHT22;70683;52.492;13.416;2023-09-08T06:27:24;19.70;69.80
80279;DHT22;70683;52.492;13.416;2023-09-08T06:29:51;19.70;69.40
80279;DHT22;70683;52.492;13.416;2023-09-08T06:32:17;19.80;69.40
80279;DHT22;70683;52.492;13.416;2023-09-08T06:34:44;19.90;69.10
80279;DHT22;70683;52.492;13.416;2023-09-08T06:37:11;19.90;69.00
80279;DHT22;70683;52.492;13.416;2023-09-08T06:39:37;20.00;69.00
80279;DHT22;70683;52.492;13.416;2023-09-08T06:42:04;20.10;68.50
80279;DHT22;70683;52.492;13.416;2023-09-08T06:44:31;20.30;68.10
80279;DHT22;70683;52.492;13.416;2023-09-08T06:46:57;20.30;67.90
80279;DHT22;70683;52.492;13.416;2023-09-08T06:49:24;20.50;68.20
80279;DHT22;70683;52.492;13.416;2023-09-08T06:51:51;20.70;66.70
80279;DHT22;70683;52.492;13.416;2023-09-08T06:54:17;20.80;66.20
80279;DHT22;70683;52.492;13.416;2023-09-08T06:56:44;20.90;65.90
80279;DHT22;70683;52.492;13.416;2023-09-08T06:59:11;21.10;65.20
80279;DHT22;70683;52.492;13.416;2023-09-08T07:01:37;21.30;64.90
80279;DHT22;70683;52.492;13.416;2023-09-08T07:04:04;21.50;64.10
80279;DHT22;70683;52.492;13.416;2023-09-08T07:06:31;21.80;63.60
80279;DHT22;70683;52.492;13.416;2023-09-08T07:08:58;22.00;63.10
80279;DHT22;70683;52.492;13.416;2023-09-08T07:11:24;22.30;61.80
80279;DHT22;70683;52.492;13.416;2023-09-08T07:13:51;22.60;61.00
80279;DHT22;70683;52.492;13.416;2023-09-08T07:16:17;23.00;59.60
80279;DHT22;70683;52.492;13.416;2023-09-08T07:18:44;23.30;58.90
80279;DHT22;70683;52.492;13.416;2023-09-08T07:21:11;23.70;57.80
80279;DHT22;70683;52.492;13.416;2023-09-08T07:23:37;24.10;57.10
80279;DHT22;70683;52.492;13.416;2023-09-08T07:26:04;24.40;55.20
80279;DHT22;70683;52.492;13.416;2023-09-08T07:28:30;24.80;54.50
80279;DHT22;70683;52.492;13.416;2023-09-08T07:31:01;25.10;53.40
80279;DHT22;70683;52.492;13.416;2023-09-08T07:33:29;25.40;53.10
80279;DHT22;70683;52.492;13.416;2023-09-08T07:35:55;26.00;51.90
80279;DHT22;70683;52.492;13.416;2023-09-08T07:38:22;26.90;49.80
80279;DHT22;70683;52.492;13.416;2023-09-08T07:40:48;27.90;47.90
80279;DHT22;70683;52.492;13.416;2023-09-08T07:43:15;28.90;45.00
80279;DHT22;70683;52.492;13.416;2023-09-08T07:45:42;29.80;42.70
80279;DHT22;70683;52.492;13.416;2023-09-08T07:48:08;30.50;40.30
80279;DHT22;70683;52.492;13.416;2023-09-08T07:50:35;31.10;39.10
80279;DHT22;70683;52.492;13.416;2023-09-08T07:53:02;31.70;38.00
80279;DHT22;70683;52.492;13.416;2023-09-08T07:55:28;32.20;37.20
80279;DHT22;70683;52.492;13.416;2023-09-08T07:57:56;32.30;35.90
80279;DHT22;70683;52.492;13.416;2023-09-08T08:00:23;32.20;36.00
80279;DHT22;70683;52.492;13.416;2023-09-08T08:02:53;31.90;36.60
80279;DHT22;70683;52.492;13.416;2023-09-08T08:05:21;31.80;37.50
80279;DHT22;70683;52.492;13.416;2023-09-08T08:07:47;31.60;38.10
80279;DHT22;70683;52.492;13.416;2023-09-08T08:10:14;31.60;37.40
80279;DHT22;70683;52.492;13.416;2023-09-08T08:12:42;31.50;37.50
80279;DHT22;70683;52.492;13.416;2023-09-08T08:15:10;31.60;37.80
80279;DHT22;70683;52.492;13.416;2023-09-08T08:17:37;31.80;37.60
80279;DHT22;70683;52.492;13.416;2023-09-08T08:20:06;32.00;37.20
80279;DHT22;70683;52.492;13.416;2023-09-08T08:22:37;31.90;36.70
80279;DHT22;70683;52.492;13.416;2023-09-08T08:25:04;32.00;36.70
80279;DHT22;70683;52.492;13.416;2023-09-08T08:27:31;31.70;36.80
80279;DHT22;70683;52.492;13.416;2023-09-08T08:29:58;31.60;36.70
80279;DHT22;70683;52.492;13.416;2023-09-08T08:32:27;31.40;37.40
80279;DHT22;70683;52.492;13.416;2023-09-08T08:34:54;31.20;38.30
80279;DHT22;70683;52.492;13.416;2023-09-08T08:37:22;31.30;38.50
80279;DHT22;70683;52.492;13.416;2023-09-08T08:39:49;31.50;38.30
80279;DHT22;70683;52.492;13.416;2023-09-08T08:42:16;31.80;37.50
80279;DHT22;70683;52.492;13.416;2023-09-08T08:44:43;32.00;36.60
80279;DHT22;70683;52.492;13.416;2023-09-08T08:47:12;32.10;36.50
80279;DHT22;70683;52.492;13.416;2023-09-08T08:49:40;32.30;37.50
80279;DHT22;70683;52.492;13.416;2023-09-08T08:52:10;32.60;36.90
80279;DHT22;70683;52.492;13.416;2023-09-08T08:54:39;32.70;37.20
80279;DHT22;70683;52.492;13.416;2023-09-08T08:57:07;33.00;35.10
80279;DHT22;70683;52.492;13.416;2023-09-08T08:59:33;33.60;34.70
80279;DHT22;70683;52.492;13.416;2023-09-08T09:02:02;34.10;32.50
80279;DHT22;70683;52.492;13.416;2023-09-08T09:04:30;34.70;31.80
80279;DHT22;70683;52.492;13.416;2023-09-08T09:06:57;35.10;32.10
80279;DHT22;70683;52.492;13.416;2023-09-08T09:09:25;35.40;31.10
80279;DHT22;70683;52.492;13.416;2023-09-08T09:11:52;35.40;30.30
80279;DHT22;70683;52.492;13.416;2023-09-08T09:14:18;35.60;29.90
80279;DHT22;70683;52.492;13.416;2023-09-08T09:16:46;35.90;29.30
80279;DHT22;70683;52.492;13.416;2023-09-08T09:19:29;36.10;29.70
80279;DHT22;70683;52.492;13.416;2023-09-08T09:21:58;35.80;29.50
80279;DHT22;70683;52.492;13.416;2023-09-08T09:24:35;35.90;29.80
80279;DHT22;70683;52.492;13.416;2023-09-08T09:27:07;36.10;30.10
80279;DHT22;70683;52.492;13.416;2023-09-08T09:32:09;36.70;29.30
80279;DHT22;70683;52.492;13.416;2023-09-08T09:34:36;36.80;29.10
80279;DHT22;70683;52.492;13.416;2023-09-08T09:37:04;37.00;29.40
80279;DHT22;70683;52.492;13.416;2023-09-08T09:39:31;37.30;29.60
80279;DHT22;70683;52.492;13.416;2023-09-08T09:41:58;37.60;29.10
80279;DHT22;70683;52.492;13.416;2023-09-08T09:44:26;37.50;27.30
80279;DHT22;70683;52.492;13.416;2023-09-08T09:46:53;37.00;27.80
80279;DHT22;70683;52.492;13.416;2023-09-08T09:49:20;36.60;28.00
80279;DHT22;70683;52.492;13.416;2023-09-08T09:51:49;36.40;28.10
80279;DHT22;70683;52.492;13.416;2023-09-08T09:54:17;36.30;28.90
80279;DHT22;70683;52.492;13.416;2023-09-08T09:56:44;36.40;28.70
80279;DHT22;70683;52.492;13.416;2023-09-08T09:59:14;36.40;29.30
80279;DHT22;70683;52.492;13.416;2023-09-08T10:01:41;36.40;29.00
80279;DHT22;70683;52.492;13.416;2023-09-08T10:04:09;36.40;29.20
80279;DHT22;70683;52.492;13.416;2023-09-08T10:06:38;36.30;28.80
80279;DHT22;70683;52.492;13.416;2023-09-08T10:09:06;36.30;29.10
80279;DHT22;70683;52.492;13.416;2023-09-08T10:11:42;36.40;29.40
80279;DHT22;70683;52.492;13.416;2023-09-08T10:14:09;36.80;29.00
80279;DHT22;70683;52.492;13.416;2023-09-08T10:16:39;37.00;28.60
80279;DHT22;70683;52.492;13.416;2023-09-08T10:19:09;37.00;28.30
80279;DHT22;70683;52.492;13.416;2023-09-08T10:21:45;37.30;28.30
80279;DHT22;70683;52.492;13.416;2023-09-08T10:24:17;37.60;28.00
80279;DHT22;70683;52.492;13.416;2023-09-08T10:26:47;37.60;27.50
80279;DHT22;70683;52.492;13.416;2023-09-08T10:29:13;37.60;27.70
80279;DHT22;70683;52.492;13.416;2023-09-08T10:31:41;37.80;27.60
80279;DHT22;70683;52.492;13.416;2023-09-08T10:34:08;38.00;27.60
80279;DHT22;70683;52.492;13.416;2023-09-08T10:36:35;38.30;27.20
80279;DHT22;70683;52.492;13.416;2023-09-08T10:41:41;37.30;27.40
80279;DHT22;70683;52.492;13.416;2023-09-08T10:44:08;37.10;27.90
80279;DHT22;70683;52.492;13.416;2023-09-08T10:46:37;37.20;28.10
80279;DHT22;70683;52.492;13.416;2023-09-08T10:49:05;37.40;27.70
80279;DHT22;70683;52.492;13.416;2023-09-08T10:51:33;37.70;28.30
80279;DHT22;70683;52.492;13.416;2023-09-08T10:54:01;37.90;27.00
80279;DHT22;70683;52.492;13.416;2023-09-08T10:59:04;37.90;27.10
80279;DHT22;70683;52.492;13.416;2023-09-08T11:01:31;38.00;26.50
80279;DHT22;70683;52.492;13.416;2023-09-08T11:03:57;38.00;27.20
80279;DHT22;70683;52.492;13.416;2023-09-08T11:06:26;38.40;26.50
80279;DHT22;70683;52.492;13.416;2023-09-08T11:08:55;37.80;26.80
80279;DHT22;70683;52.492;13.416;2023-09-08T11:11:22;37.70;27.30
80279;DHT22;70683;52.492;13.416;2023-09-08T11:13:49;38.10;27.10
80279;DHT22;70683;52.492;13.416;2023-09-08T11:16:16;38.50;26.70
80279;DHT22;70683;52.492;13.416;2023-09-08T11:18:44;38.80;25.80
80279;DHT22;70683;52.492;13.416;2023-09-08T11:21:11;38.70;25.90
80279;DHT22;70683;52.492;13.416;2023-09-08T11:23:38;38.50;25.70
80279;DHT22;70683;52.492;13.416;2023-09-08T11:26:05;38.20;25.90
80279;DHT22;70683;52.492;13.416;2023-09-08T11:28:35;37.70;26.40
80279;DHT22;70683;52.492;13.416;2023-09-08T11:31:01;37.70;26.50
80279;DHT22;70683;52.492;13.416;2023-09-08T11:33:33;38.00;26.70
80279;DHT22;70683;52.492;13.416;2023-09-08T11:35:59;38.00;25.70
80279;DHT22;70683;52.492;13.416;2023-09-08T11:38:27;37.90;26.20
80279;DHT22;70683;52.492;13.416;2023-09-08T11:40:56;38.10;25.40
80279;DHT22;70683;52.492;13.416;2023-09-08T11:43:23;38.20;25.10
80279;DHT22;70683;52.492;13.416;2023-09-08T11:45:50;38.40;25.70
80279;DHT22;70683;52.492;13.416;2023-09-08T11:48:17;38.60;25.00
80279;DHT22;70683;52.492;13.416;2023-09-08T11:50:44;39.00;25.00
80279;DHT22;70683;52.492;13.416;2023-09-08T11:53:10;39.10;24.50
80279;DHT22;70683;52.492;13.416;2023-09-08T11:55:37;39.30;24.40
80279;DHT22;70683;52.492;13.416;2023-09-08T11:58:05;39.10;24.50
80279;DHT22;70683;52.492;13.416;2023-09-08T12:00:32;38.80;24.70
80279;DHT22;70683;52.492;13.416;2023-09-08T12:03:09;38.60;25.30
80279;DHT22;70683;52.492;13.416;2023-09-08T12:05:36;38.30;25.10
80279;DHT22;70683;52.492;13.416;2023-09-08T12:08:04;37.90;25.50
80279;DHT22;70683;52.492;13.416;2023-09-08T12:10:37;37.40;25.80
80279;DHT22;70683;52.492;13.416;2023-09-08T12:13:04;37.10;26.40
80279;DHT22;70683;52.492;13.416;2023-09-08T12:15:35;37.00;26.80
80279;DHT22;70683;52.492;13.416;2023-09-08T12:18:04;37.00;27.10
80279;DHT22;70683;52.492;13.416;2023-09-08T12:20:32;37.50;26.60
80279;DHT22;70683;52.492;13.416;2023-09-08T12:23:02;38.00;26.00
80279;DHT22;70683;52.492;13.416;2023-09-08T12:25:29;38.70;25.00
80279;DHT22;70683;52.492;13.416;2023-09-08T12:27:59;39.30;24.00
80279;DHT22;70683;52.492;13.416;2023-09-08T12:30:27;39.30;24.10
80279;DHT22;70683;52.492;13.416;2023-09-08T12:32:59;39.50;24.00
80279;DHT22;70683;52.492;13.416;2023-09-08T12:35:27;39.60;23.40
80279;DHT22;70683;52.492;13.416;2023-09-08T12:37:59;39.10;24.10
80279;DHT22;70683;52.492;13.416;2023-09-08T12:40:27;38.90;24.40
80279;DHT22;70683;52.492;13.416;2023-09-08T12:42:55;38.40;24.30
80279;DHT22;70683;52.492;13.416;2023-09-08T12:45:22;38.00;24.40
80279;DHT22;70683;52.492;13.416;2023-09-08T12:47:49;37.40;25.90
80279;DHT22;70683;52.492;13.416;2023-09-08T12:50:16;36.50;26.90
80279;DHT22;70683;52.492;13.416;2023-09-08T12:52:43;35.80;27.50
80279;DHT22;70683;52.492;13.416;2023-09-08T12:55:09;35.30;28.70
80279;DHT22;70683;52.492;13.416;2023-09-08T12:57:36;34.80;28.40
80279;DHT22;70683;52.492;13.416;2023-09-08T13:00:04;34.40;28.90
80279;DHT22;70683;52.492;13.416;2023-09-08T13:02:31;34.00;29.90
80279;DHT22;70683;52.492;13.416;2023-09-08T13:04:58;33.60;30.20
80279;DHT22;70683;52.492;13.416;2023-09-08T13:07:25;33.30;30.80
80279;DHT22;70683;52.492;13.416;2023-09-08T13:09:52;33.00;31.40
80279;DHT22;70683;52.492;13.416;2023-09-08T13:12:19;32.80;32.00
80279;DHT22;70683;52.492;13.416;2023-09-08T13:14:45;32.60;32.60
80279;DHT22;70683;52.492;13.416;2023-09-08T13:17:13;32.40;32.30
80279;DHT22;70683;52.492;13.416;2023-09-08T13:19:42;32.20;33.40
80279;DHT22;70683;52.492;13.416;2023-09-08T13:22:09;32.10;32.70
80279;DHT22;70683;52.492;13.416;2023-09-08T13:24:36;31.80;33.50
80279;DHT22;70683;52.492;13.416;2023-09-08T13:27:04;31.70;33.20
80279;DHT22;70683;52.492;13.416;2023-09-08T13:29:30;31.70;33.10
80279;DHT22;70683;52.492;13.416;2023-09-08T13:31:57;31.50;34.10
80279;DHT22;70683;52.492;13.416;2023-09-08T13:34:24;31.50;34.40
80279;DHT22;70683;52.492;13.416;2023-09-08T13:36:51;31.60;34.60
80279;DHT22;70683;52.492;13.416;2023-09-08T13:39:17;31.70;34.00
80279;DHT22;70683;52.492;13.416;2023-09-08T13:41:50;31.60;33.60
80279;DHT22;70683;52.492;13.416;2023-09-08T13:44:18;31.50;33.50
80279;DHT22;70683;52.492;13.416;2023-09-08T13:46:47;31.40;33.50
80279;DHT22;70683;52.492;13.416;2023-09-08T13:49:14;31.20;33.60
80279;DHT22;70683;52.492;13.416;2023-09-08T13:51:41;31.10;33.60
80279;DHT22;70683;52.492;13.416;2023-09-08T13:54:09;31.00;33.70
80279;DHT22;70683;52.492;13.416;2023-09-08T13:56:38;30.90;34.80
80279;DHT22;70683;52.492;13.416;2023-09-08T13:59:06;30.80;35.00
80279;DHT22;70683;52.492;13.416;2023-09-08T14:01:33;30.70;34.30
80279;DHT22;70683;52.492;13.416;2023-09-08T14:04:00;30.60;34.90
80279;DHT22;70683;52.492;13.416;2023-09-08T14:06:28;30.60;35.30
80279;DHT22;70683;52.492;13.416;2023-09-08T14:08:55;30.20;36.20
80279;DHT22;70683;52.492;13.416;2023-09-08T14:11:22;30.10;36.10
80279;DHT22;70683;52.492;13.416;2023-09-08T14:13:49;29.90;37.40
80279;DHT22;70683;52.492;13.416;2023-09-08T14:16:18;29.90;35.90
80279;DHT22;70683;52.492;13.416;2023-09-08T14:18:45;29.90;35.70
80279;DHT22;70683;52.492;13.416;2023-09-08T14:21:12;29.90;36.10
80279;DHT22;70683;52.492;13.416;2023-09-08T14:23:39;29.90;35.60
80279;DHT22;70683;52.492;13.416;2023-09-08T14:26:07;29.90;35.40
80279;DHT22;70683;52.492;13.416;2023-09-08T14:28:34;29.70;36.40
80279;DHT22;70683;52.492;13.416;2023-09-08T14:31:02;29.70;36.50
80279;DHT22;70683;52.492;13.416;2023-09-08T14:33:29;29.60;35.60
80279;DHT22;70683;52.492;13.416;2023-09-08T14:35:55;29.60;34.80
80279;DHT22;70683;52.492;13.416;2023-09-08T14:38:23;29.50;35.50
80279;DHT22;70683;52.492;13.416;2023-09-08T14:40:56;29.60;34.90
80279;DHT22;70683;52.492;13.416;2023-09-08T14:43:23;29.60;34.90
80279;DHT22;70683;52.492;13.416;2023-09-08T14:45:51;29.60;35.40
80279;DHT22;70683;52.492;13.416;2023-09-08T14:48:19;29.60;35.10
80279;DHT22;70683;52.492;13.416;2023-09-08T14:50:46;29.60;35.50
80279;DHT22;70683;52.492;13.416;2023-09-08T14:53:13;29.60;34.90
80279;DHT22;70683;52.492;13.416;2023-09-08T14:55:40;29.60;34.90
80279;DHT22;70683;52.492;13.416;2023-09-08T14:58:07;29.60;35.40
80279;DHT22;70683;52.492;13.416;2023-09-08T15:00:33;29.60;34.80
80279;DHT22;70683;52.492;13.416;2023-09-08T15:03:01;29.50;34.90
80279;DHT22;70683;52.492;13.416;2023-09-08T15:05:31;29.40;34.20
80279;DHT22;70683;52.492;13.416;2023-09-08T15:07:58;29.30;35.00
80279;DHT22;70683;52.492;13.416;2023-09-08T15:10:25;29.30;35.40
80279;DHT22;70683;52.492;13.416;2023-09-08T15:12:52;29.30;35.20
80279;DHT22;70683;52.492;13.416;2023-09-08T15:15:19;29.30;34.80
80279;DHT22;70683;52.492;13.416;2023-09-08T15:17:47;29.30;34.80
80279;DHT22;70683;52.492;13.416;2023-09-08T15:20:14;29.30;34.70
80279;DHT22;70683;52.492;13.416;2023-09-08T15:22:41;29.40;35.10
80279;DHT22;70683;52.492;13.416;2023-09-08T15:25:08;29.40;35.10